Time;durP1;ratioP1;P1;durP2;ratioP2;P2;SDS_P1;SDS_P2;PMS_P1;PMS_P2;Temp;Humidity;BMP_temperature;BMP_pressure;BME280_temperature;BME280_humidity;BME280_pressure;Samples;Min_cycle;Max_cycle;Signal;HPM_P1;HPM_P2
2023/11/22 00:02:17;;;;;;;1.33;0.70;;;8.10;99.90;;;;;;6272667;22;20011;-83
2023/11/22 00:04:45;;;;;;;2.15;1.23;;;8.10;99.90;;;;;;6247335;22;20023;-83
2023/11/22 00:07:14;;;;;;;0.98;0.88;;;8.00;99.90;;;;;;6271512;22;20072;-83
2023/11/22 00:09:42;;;;;;;1.08;0.60;;;7.90;99.90;;;;;;6247082;22;20019;-84
2023/11/22 00:12:10;;;;;;;1.65;0.90;;;7.90;1.00;;;;;;6272865;22;20538;-83
2023/11/22 00:14:37;;;;;;;1.30;0.77;;;7.80;99.90;;;;;;6245782;22;20086;-83
2023/11/22 00:17:06;;;;;;;0.95;0.70;;;7.70;99.90;;;;;;6299002;22;20075;-84
2023/11/22 00:19:41;;;;;;;1.52;0.68;;;7.70;99.90;;;;;;6272142;22;20094;-85
2023/11/22 00:22:14;;;;;;;0.80;0.60;;;7.60;99.90;;;;;;6245314;22;20019;-83
2023/11/22 00:24:41;;;;;;;1.33;0.90;;;7.60;1.00;;;;;;6299085;22;20016;-83
2023/11/22 00:27:10;;;;;;;1.75;1.05;;;7.60;73.90;;;;;;6271718;22;20089;-83
2023/11/22 00:29:37;;;;;;;2.05;0.77;;;7.50;99.90;;;;;;6222948;22;20035;-82
2023/11/22 00:32:04;;;;;;;1.48;0.90;;;7.50;1.00;;;;;;6299999;22;20023;-84
2023/11/22 00:34:31;;;;;;;3.33;0.70;;;7.40;1.00;;;;;;6273000;22;20019;-85
2023/11/22 00:36:58;;;;;;;1.35;0.68;;;7.40;1.00;;;;;;6221547;22;20072;-84
2023/11/22 00:39:25;;;;;;;2.42;0.93;;;7.40;70.60;;;;;;6247539;22;20026;-84
2023/11/22 00:41:52;;;;;;;1.23;0.60;;;7.40;99.90;;;;;;6247663;22;20035;-84
2023/11/22 00:44:19;;;;;;;0.90;0.50;;;7.30;99.90;;;;;;6247896;22;20098;-85
2023/11/22 00:46:47;;;;;;;1.42;0.88;;;7.30;99.90;;;;;;6248051;22;20069;-84
2023/11/22 00:49:14;;;;;;;1.15;0.60;;;7.30;99.90;;;;;;6273160;22;20339;-84
2023/11/22 00:51:42;;;;;;;0.68;0.50;;;7.30;99.90;;;;;;6273067;22;20094;-84
2023/11/22 00:54:09;;;;;;;2.53;0.70;;;7.30;1.00;;;;;;6271763;22;20026;-85
2023/11/22 00:56:37;;;;;;;0.63;0.60;;;7.20;1.00;;;;;;6272661;22;20395;-84
2023/11/22 00:59:04;;;;;;;0.77;0.40;;;7.20;1.00;;;;;;6272784;22;20011;-83
2023/11/22 01:01:31;;;;;;;2.17;0.63;;;7.10;1.00;;;;;;6246249;22;20094;-84
2023/11/22 01:03:59;;;;;;;1.48;0.90;;;7.10;99.90;;;;;;6268823;22;20023;-85
2023/11/22 01:06:28;;;;;;;1.92;0.70;;;7.10;1.00;;;;;;6295667;22;20813;-84
2023/11/22 01:08:55;;;;;;;2.13;1.58;;;7.10;1.00;;;;;;6247013;22;20023;-84
2023/11/22 01:11:22;;;;;;;1.25;0.80;;;7.10;19.60;;;;;;6245980;22;20023;-83
2023/11/22 01:13:49;;;;;;;0.80;0.60;;;7.00;76.80;;;;;;6246399;22;20019;-83
2023/11/22 01:16:16;;;;;;;1.52;0.90;;;7.00;99.90;;;;;;6246023;22;20023;-83
2023/11/22 01:18:45;;;;;;;2.35;0.65;;;7.10;99.90;;;;;;6247320;22;20022;-83
2023/11/22 01:21:13;;;;;;;0.75;0.50;;;7.10;99.90;;;;;;6246948;22;20069;-83
2023/11/22 01:23:39;;;;;;;0.75;0.47;;;7.10;99.90;;;;;;6220086;22;20027;-84
2023/11/22 01:26:06;;;;;;;0.90;0.40;;;7.10;99.90;;;;;;6298881;22;20322;-83
2023/11/22 01:28:34;;;;;;;0.80;0.60;;;7.10;99.90;;;;;;6272045;22;20023;-84
2023/11/22 01:31:02;;;;;;;1.45;0.70;;;7.10;99.90;;;;;;6271160;22;20015;-84
2023/11/22 01:33:32;;;;;;;0.30;0.30;;;7.20;99.90;;;;;;6296375;22;20132;-85
2023/11/22 01:35:59;;;;;;;0.63;0.40;;;7.20;99.90;;;;;;6269225;22;20425;-84
2023/11/22 01:38:26;;;;;;;0.40;0.40;;;7.20;99.90;;;;;;6217363;22;20019;-83
2023/11/22 01:40:53;;;;;;;1.02;0.40;;;7.20;99.90;;;;;;6271533;22;20687;-83
2023/11/22 01:43:20;;;;;;;0.45;0.40;;;7.30;99.90;;;;;;6245932;22;20072;-84
2023/11/22 01:45:48;;;;;;;0.30;0.30;;;7.30;99.90;;;;;;6271939;22;20467;-84
2023/11/22 01:48:15;;;;;;;1.30;0.40;;;7.30;99.90;;;;;;6271332;22;20038;-83
2023/11/22 01:50:43;;;;;;;0.30;0.30;;;7.30;99.90;;;;;;6244785;22;20023;-82
2023/11/22 01:53:11;;;;;;;0.75;0.50;;;7.30;99.90;;;;;;6213378;22;20452;-84
2023/11/22 01:55:39;;;;;;;0.32;0.28;;;7.30;99.90;;;;;;6217542;22;20483;-84
2023/11/22 01:58:06;;;;;;;0.75;0.40;;;7.30;1.00;;;;;;6242592;22;20029;-84
2023/11/22 02:00:53;;;;;;;0.77;0.40;;;7.30;1.00;;;;;;6268825;22;20020;-84
2023/11/22 02:03:20;;;;;;;0.45;0.45;;;7.20;1.00;;;;;;6242443;22;20043;-85
2023/11/22 02:05:49;;;;;;;0.40;0.30;;;7.30;99.90;;;;;;6268470;22;20480;-84
2023/11/22 02:08:18;;;;;;;0.50;0.30;;;7.30;99.90;;;;;;6243778;22;20049;-84
2023/11/22 02:11:03;;;;;;;0.98;0.45;;;7.30;99.90;;;;;;6249763;22;20110;-84
2023/11/22 02:13:31;;;;;;;0.30;0.30;;;7.30;99.90;;;;;;6250315;22;20019;-84
2023/11/22 02:15:59;;;;;;;0.55;0.40;;;7.30;99.90;;;;;;6223138;22;20019;-83
2023/11/22 02:18:26;;;;;;;0.55;0.40;;;7.30;99.90;;;;;;6273795;22;20024;-84
2023/11/22 02:20:53;;;;;;;0.45;0.40;;;7.30;1.00;;;;;;6223261;22;20015;-84
2023/11/22 02:23:20;;;;;;;1.20;0.57;;;7.30;1.00;;;;;;6270672;22;20030;-85
2023/11/22 02:25:48;;;;;;;0.77;0.40;;;7.30;1.00;;;;;;6269701;22;20530;-84
2023/11/22 02:28:16;;;;;;;1.02;0.30;;;7.30;1.00;;;;;;6296777;22;20027;-84
2023/11/22 02:30:43;;;;;;;0.30;0.30;;;7.30;1.00;;;;;;6244828;22;20137;-83
2023/11/22 02:33:10;;;;;;;1.38;0.43;;;7.30;99.90;;;;;;6245520;22;20023;-84
2023/11/22 02:35:37;;;;;;;0.50;0.30;;;7.30;99.90;;;;;;6245315;22;20083;-83
2023/11/22 02:38:05;;;;;;;0.40;0.32;;;7.30;99.90;;;;;;6220054;22;20019;-82
2023/11/22 02:40:33;;;;;;;0.30;0.30;;;7.30;25.30;;;;;;6246679;22;20031;-84
2023/11/22 02:43:07;;;;;;;1.02;0.73;;;7.30;99.90;;;;;;6220125;22;20019;-83
2023/11/22 02:45:34;;;;;;;0.90;0.60;;;7.30;99.90;;;;;;6247379;22;20019;-84
2023/11/22 02:48:03;;;;;;;0.47;0.32;;;7.30;32.80;;;;;;6247580;22;20019;-83
2023/11/22 02:50:34;;;;;;;0.80;0.40;;;7.30;99.90;;;;;;6274266;22;20205;-83
2023/11/22 02:53:01;;;;;;;0.77;0.50;;;7.30;99.90;;;;;;6222060;22;20023;-84
2023/11/22 02:55:30;;;;;;;0.55;0.30;;;7.30;1.00;;;;;;6273151;22;20011;-84
2023/11/22 02:57:57;;;;;;;0.68;0.38;;;7.30;99.90;;;;;;6247668;22;20030;-83
2023/11/22 03:00:25;;;;;;;0.40;0.40;;;7.30;99.90;;;;;;6273229;22;20601;-83
2023/11/22 03:02:53;;;;;;;0.68;0.50;;;7.30;99.90;;;;;;6247722;22;20586;-83
2023/11/22 03:05:21;;;;;;;0.80;0.40;;;7.30;99.90;;;;;;6249318;22;20207;-83
2023/11/22 03:07:50;;;;;;;1.02;0.52;;;7.30;45.00;;;;;;6246708;22;20069;-83
2023/11/22 03:10:18;;;;;;;0.68;0.50;;;7.30;1.00;;;;;;6273215;22;20502;-84
2023/11/22 03:12:45;;;;;;;1.98;0.70;;;7.30;99.90;;;;;;6222041;22;20015;-82
2023/11/22 03:15:12;;;;;;;1.38;0.70;;;7.20;99.90;;;;;;6247273;22;20019;-83
2023/11/22 03:17:39;;;;;;;2.45;0.80;;;7.20;99.90;;;;;;6272784;22;20072;-84
2023/11/22 03:20:10;;;;;;;1.05;0.70;;;7.20;99.90;;;;;;6247956;22;20062;-84
2023/11/22 03:22:38;;;;;;;1.48;0.75;;;7.20;99.90;;;;;;6272278;22;20363;-83
2023/11/22 03:25:06;;;;;;;0.38;0.38;;;7.10;99.90;;;;;;6272882;22;20019;-84
2023/11/22 03:27:34;;;;;;;1.30;0.80;;;7.10;1.00;;;;;;6247973;22;20015;-84
2023/11/22 03:30:01;;;;;;;0.55;0.50;;;7.10;99.90;;;;;;6221926;22;20072;-84
2023/11/22 03:32:29;;;;;;;1.23;0.70;;;7.10;99.90;;;;;;6272250;22;20073;-83
2023/11/22 03:34:57;;;;;;;0.77;0.45;;;7.10;99.90;;;;;;6222381;22;20078;-83
2023/11/22 03:37:24;;;;;;;0.60;0.50;;;7.10;99.90;;;;;;6299124;22;20561;-82
2023/11/22 03:39:51;;;;;;;0.85;0.50;;;7.00;1.00;;;;;;6247378;22;20038;-84
2023/11/22 03:42:18;;;;;;;1.00;0.45;;;7.00;99.90;;;;;;6221638;22;20015;-84
2023/11/22 03:44:45;;;;;;;1.02;0.80;;;7.00;99.90;;;;;;6300704;22;20092;-83
2023/11/22 03:47:21;;;;;;;1.58;0.63;;;7.00;99.90;;;;;;6300558;22;20069;-82
2023/11/22 03:49:48;;;;;;;1.00;0.70;;;6.90;1.00;;;;;;6247620;22;20019;-83
2023/11/22 03:52:15;;;;;;;0.50;0.45;;;6.90;1.00;;;;;;6299362;22;20019;-82
2023/11/22 03:54:42;;;;;;;0.57;0.50;;;6.90;99.90;;;;;;6216867;22;20023;-84
2023/11/22 03:57:09;;;;;;;0.60;0.60;;;6.90;99.90;;;;;;6191541;22;20023;-82
2023/11/22 03:59:36;;;;;;;0.43;0.40;;;6.80;99.90;;;;;;6243263;22;20027;-83
2023/11/22 04:02:03;;;;;;;0.50;0.50;;;6.80;1.00;;;;;;6269326;22;20047;-83
2023/11/22 04:04:30;;;;;;;1.17;0.65;;;6.80;99.90;;;;;;6243108;22;20020;-83
2023/11/22 04:06:57;;;;;;;0.95;0.60;;;6.70;99.90;;;;;;6241678;22;20019;-83
2023/11/22 04:09:24;;;;;;;1.67;0.60;;;6.60;99.90;;;;;;6242227;22;20024;-81
2023/11/22 04:11:52;;;;;;;0.50;0.50;;;6.60;1.00;;;;;;6242372;22;20023;-83
2023/11/22 04:14:21;;;;;;;0.88;0.52;;;6.60;20.20;;;;;;6242457;22;20469;-83
2023/11/22 04:16:48;;;;;;;0.55;0.30;;;6.60;34.80;;;;;;6193690;22;20020;-81
2023/11/22 04:19:17;;;;;;;0.88;0.45;;;6.50;81.00;;;;;;6217446;22;20468;-82
2023/11/22 04:21:44;;;;;;;0.77;0.50;;;6.50;99.90;;;;;;6241319;22;20058;-82
2023/11/22 04:24:12;;;;;;;0.88;0.60;;;6.40;56.40;;;;;;6216814;22;20507;-82
2023/11/22 04:26:39;;;;;;;1.20;0.80;;;6.40;46.20;;;;;;6241897;22;20016;-84
2023/11/22 04:29:06;;;;;;;0.82;0.55;;;6.30;12.00;;;;;;6217250;22;20043;-85
2023/11/22 04:31:33;;;;;;;0.40;0.40;;;6.30;99.90;;;;;;6217279;22;20016;-85
2023/11/22 04:34:00;;;;;;;0.57;0.50;;;6.30;53.60;;;;;;6242357;22;20019;-84
2023/11/22 04:36:27;;;;;;;0.63;0.43;;;6.20;46.20;;;;;;6268234;22;20020;-86
2023/11/22 04:38:54;;;;;;;0.47;0.47;;;6.10;82.70;;;;;;6217507;22;20039;-84
2023/11/22 04:41:22;;;;;;;0.80;0.50;;;6.10;99.90;;;;;;6242581;22;20477;-84
2023/11/22 04:43:49;;;;;;;0.95;0.68;;;6.20;99.90;;;;;;6218147;22;20448;-83
2023/11/22 04:46:16;;;;;;;1.05;0.70;;;6.20;99.90;;;;;;6217940;22;20015;-81
2023/11/22 04:48:44;;;;;;;2.17;0.50;;;6.10;99.90;;;;;;6217162;22;20016;-86
2023/11/22 04:51:12;;;;;;;0.90;0.55;;;6.10;99.90;;;;;;6217474;22;20016;-86
2023/11/22 04:53:39;;;;;;;1.33;0.60;;;6.10;99.90;;;;;;6253796;22;20020;-86
2023/11/22 04:56:06;;;;;;;0.82;0.50;;;6.10;99.90;;;;;;6242874;22;20074;-84
2023/11/22 04:58:34;;;;;;;1.17;0.85;;;6.00;99.90;;;;;;6267955;22;20576;-86
2023/11/22 05:01:02;;;;;;;2.00;0.70;;;6.00;99.90;;;;;;6218446;22;20031;-83
2023/11/22 05:03:30;;;;;;;0.55;0.43;;;6.00;1.00;;;;;;6273451;22;20069;-84
2023/11/22 05:05:57;;;;;;;0.80;0.60;;;6.00;1.00;;;;;;6299813;22;20053;-82
2023/11/22 05:08:25;;;;;;;1.27;0.52;;;6.00;1.00;;;;;;6246074;22;20023;-82
2023/11/22 05:10:54;;;;;;;1.25;0.47;;;6.00;99.90;;;;;;6223286;22;20019;-85
2023/11/22 05:13:22;;;;;;;0.88;0.40;;;6.10;99.90;;;;;;6248104;22;20080;-86
2023/11/22 05:15:50;;;;;;;0.63;0.43;;;6.10;99.90;;;;;;6248387;22;20046;-85
2023/11/22 05:18:17;;;;;;;0.95;0.43;;;6.10;99.90;;;;;;6222625;22;20047;-82
2023/11/22 05:20:45;;;;;;;0.73;0.60;;;6.10;99.90;;;;;;6222465;22;20367;-83
2023/11/22 05:23:13;;;;;;;0.95;0.40;;;6.20;99.90;;;;;;6220779;22;20037;-85
2023/11/22 05:25:42;;;;;;;1.25;0.73;;;6.10;99.90;;;;;;6273000;22;20038;-84
2023/11/22 05:28:08;;;;;;;0.68;0.52;;;6.10;99.90;;;;;;6272652;22;20065;-83
2023/11/22 05:30:35;;;;;;;1.40;0.82;;;6.10;1.00;;;;;;6273232;22;20469;-82
2023/11/22 05:33:02;;;;;;;0.70;0.57;;;6.10;1.00;;;;;;6247238;22;20460;-83
2023/11/22 05:35:29;;;;;;;0.65;0.60;;;6.10;1.00;;;;;;6300230;22;20471;-83
2023/11/22 05:37:57;;;;;;;0.70;0.60;;;6.10;1.00;;;;;;6297799;22;20307;-84
2023/11/22 05:40:24;;;;;;;1.58;0.85;;;6.10;1.00;;;;;;6222526;22;20100;-84
2023/11/22 05:42:52;;;;;;;0.47;0.45;;;6.10;1.00;;;;;;6247848;22;20081;-83
2023/11/22 05:45:20;;;;;;;0.60;0.40;;;6.10;1.00;;;;;;6274932;22;20011;-84
2023/11/22 05:47:48;;;;;;;0.85;0.52;;;6.00;41.20;;;;;;6222641;22;20024;-82
2023/11/22 05:50:16;;;;;;;1.08;0.65;;;6.00;1.00;;;;;;6273609;22;20098;-83
2023/11/22 05:52:44;;;;;;;1.70;1.05;;;6.00;1.00;;;;;;6271777;22;20433;-83
2023/11/22 05:55:13;;;;;;;0.38;0.35;;;6.00;72.80;;;;;;6299690;22;20050;-86
2023/11/22 05:57:41;;;;;;;0.70;0.60;;;6.00;99.90;;;;;;6272989;22;20024;-84
2023/11/22 06:00:14;;;;;;;0.70;0.50;;;5.90;99.90;;;;;;6248195;22;20038;-84
2023/11/22 06:02:43;;;;;;;1.13;0.70;;;5.90;99.90;;;;;;6272128;22;20019;-84
2023/11/22 06:05:11;;;;;;;1.00;0.60;;;5.90;99.90;;;;;;6221854;22;20999;-84
2023/11/22 06:07:39;;;;;;;1.35;0.88;;;5.90;99.90;;;;;;6221640;22;20019;-84
2023/11/22 06:10:07;;;;;;;1.30;0.73;;;5.90;99.90;;;;;;6246290;22;20023;-84
2023/11/22 06:12:35;;;;;;;1.60;0.60;;;5.80;99.90;;;;;;6272034;22;20023;-84
2023/11/22 06:15:04;;;;;;;1.15;0.70;;;5.80;99.90;;;;;;6246410;22;20453;-84
2023/11/22 06:17:32;;;;;;;0.98;0.80;;;5.80;99.90;;;;;;6246556;22;20022;-84
2023/11/22 06:20:03;;;;;;;1.48;0.88;;;5.80;99.90;;;;;;6296884;22;20473;-83
2023/11/22 06:22:30;;;;;;;1.17;0.63;;;5.80;99.90;;;;;;6246108;22;20023;-84
2023/11/22 06:24:57;;;;;;;1.00;0.70;;;5.70;1.00;;;;;;6269728;22;20030;-83
2023/11/22 06:27:25;;;;;;;0.82;0.47;;;5.70;99.90;;;;;;6245099;22;20027;-82
2023/11/22 06:29:53;;;;;;;0.75;0.43;;;5.70;99.90;;;;;;6271464;22;20041;-82
2023/11/22 06:32:20;;;;;;;1.17;0.70;;;5.60;99.90;;;;;;6247696;22;20023;-84
2023/11/22 06:34:48;;;;;;;1.65;0.98;;;5.60;1.00;;;;;;6246256;22;20094;-83
2023/11/22 06:37:15;;;;;;;0.80;0.60;;;5.60;99.90;;;;;;6243025;22;20142;-82
2023/11/22 06:39:42;;;;;;;1.08;0.60;;;5.60;99.90;;;;;;6270089;22;20023;-83
2023/11/22 06:42:09;;;;;;;1.15;0.73;;;5.60;99.90;;;;;;6222763;22;20098;-84
2023/11/22 06:44:36;;;;;;;0.70;0.65;;;5.50;99.90;;;;;;6221770;22;20490;-79
2023/11/22 06:47:03;;;;;;;2.03;0.90;;;5.50;1.00;;;;;;6243099;22;20019;-80
2023/11/22 06:49:31;;;;;;;0.50;0.40;;;5.50;1.00;;;;;;6267229;22;20026;-80
2023/11/22 06:51:59;;;;;;;0.88;0.60;;;5.50;99.90;;;;;;6268724;22;20076;-80
2023/11/22 06:54:26;;;;;;;1.25;0.63;;;5.50;99.90;;;;;;6269114;22;20027;-81
2023/11/22 06:56:53;;;;;;;0.73;0.68;;;5.50;99.90;;;;;;6245231;22;20068;-80
2023/11/22 06:59:20;;;;;;;1.05;0.70;;;5.50;99.90;;;;;;6244734;22;20035;-80
2023/11/22 07:01:48;;;;;;;0.73;0.60;;;5.50;99.90;;;;;;6297829;22;20016;-80
2023/11/22 07:04:15;;;;;;;1.55;0.77;;;5.50;99.90;;;;;;6265158;22;20023;-79
2023/11/22 07:06:44;;;;;;;0.95;0.50;;;5.50;99.90;;;;;;6263945;22;20710;-81
2023/11/22 07:09:11;;;;;;;1.25;0.70;;;5.50;99.90;;;;;;6238072;22;20042;-82
2023/11/22 07:11:38;;;;;;;0.88;0.70;;;5.50;99.90;;;;;;6289775;22;20081;-81
2023/11/22 07:14:05;;;;;;;0.85;0.65;;;5.60;99.90;;;;;;6238764;22;20022;-82
2023/11/22 07:16:33;;;;;;;0.75;0.60;;;5.60;99.90;;;;;;6213020;22;20023;-81
2023/11/22 07:19:02;;;;;;;1.25;0.57;;;5.60;99.90;;;;;;6214144;22;20019;-81
2023/11/22 07:21:30;;;;;;;0.68;0.50;;;5.70;1.00;;;;;;6263138;22;20360;-81
2023/11/22 07:23:56;;;;;;;1.33;0.70;;;5.70;1.00;;;;;;6289564;22;20023;-81
2023/11/22 07:26:25;;;;;;;1.70;0.98;;;5.80;1.00;;;;;;6290683;22;20031;-82
2023/11/22 07:28:53;;;;;;;0.70;0.50;;;5.80;1.00;;;;;;6264241;22;20023;-80
2023/11/22 07:31:19;;;;;;;0.60;0.60;;;5.80;1.00;;;;;;6291278;22;20024;-81
2023/11/22 07:33:46;;;;;;;0.88;0.60;;;5.90;1.00;;;;;;6291012;22;20137;-82
2023/11/22 07:36:15;;;;;;;0.50;0.40;;;5.90;1.00;;;;;;6263365;22;20031;-81
2023/11/22 07:38:42;;;;;;;1.23;0.80;;;6.00;1.00;;;;;;6263931;22;20100;-82
2023/11/22 07:41:10;;;;;;;1.05;0.60;;;6.10;99.90;;;;;;6289950;22;20073;-81
2023/11/22 07:43:37;;;;;;;1.08;0.60;;;6.10;1.00;;;;;;6238518;22;20341;-81
2023/11/22 07:46:12;;;;;;;1.15;0.60;;;6.20;1.00;;;;;;6212858;22;20072;-81
2023/11/22 07:48:43;;;;;;;0.80;0.60;;;6.20;99.90;;;;;;6239637;22;20045;-81
2023/11/22 07:51:11;;;;;;;0.63;0.40;;;6.20;99.90;;;;;;6263429;22;20026;-80
2023/11/22 07:53:39;;;;;;;1.15;0.60;;;6.20;99.90;;;;;;6262359;22;20019;-81
2023/11/22 07:56:06;;;;;;;0.45;0.40;;;6.30;99.90;;;;;;6263300;22;20334;-79
2023/11/22 07:58:37;;;;;;;0.77;0.50;;;6.30;99.90;;;;;;6237987;22;20029;-83
2023/11/22 08:01:04;;;;;;;0.68;0.60;;;6.40;99.90;;;;;;6263069;22;20512;-83
2023/11/22 08:03:32;;;;;;;0.43;0.40;;;6.50;31.00;;;;;;6263404;22;20016;-83
2023/11/22 08:05:59;;;;;;;0.75;0.60;;;6.50;88.00;;;;;;6265926;22;20019;-82
2023/11/22 08:08:26;;;;;;;1.00;0.50;;;6.60;25.50;;;;;;6291409;22;20019;-83
2023/11/22 08:10:53;;;;;;;0.47;0.45;;;6.60;1.00;;;;;;6265199;22;20221;-82
2023/11/22 08:13:23;;;;;;;0.82;0.70;;;6.70;1.00;;;;;;6268636;22;20318;-82
2023/11/22 08:15:51;;;;;;;0.88;0.50;;;6.70;99.90;;;;;;6243480;22;20024;-83
2023/11/22 08:18:18;;;;;;;1.15;0.68;;;6.70;99.90;;;;;;6269463;22;20034;-82
2023/11/22 08:20:46;;;;;;;0.52;0.45;;;6.70;99.90;;;;;;6219326;22;20062;-82
2023/11/22 08:23:14;;;;;;;0.70;0.40;;;6.70;99.90;;;;;;6267775;22;20457;-80
2023/11/22 08:25:42;;;;;;;0.43;0.30;;;6.70;99.90;;;;;;6241894;22;20027;-83
2023/11/22 08:28:12;;;;;;;0.52;0.50;;;6.80;99.90;;;;;;6242688;22;20023;-84
2023/11/22 08:30:40;;;;;;;0.77;0.60;;;6.80;99.90;;;;;;6246886;22;20042;-84
2023/11/22 08:33:07;;;;;;;0.50;0.50;;;6.90;99.90;;;;;;6271229;22;20015;-83
2023/11/22 08:35:34;;;;;;;0.60;0.45;;;6.90;43.80;;;;;;6270850;22;20094;-84
2023/11/22 08:38:03;;;;;;;0.57;0.45;;;6.90;1.00;;;;;;6244225;22;20102;-82
2023/11/22 08:40:30;;;;;;;0.55;0.50;;;7.00;1.00;;;;;;6298430;22;20022;-83
2023/11/22 08:42:57;;;;;;;0.93;0.50;;;7.00;99.90;;;;;;6298555;22;20023;-80
2023/11/22 08:45:23;;;;;;;0.65;0.47;;;7.00;99.90;;;;;;6220872;22;20027;-82
2023/11/22 08:47:51;;;;;;;0.68;0.50;;;7.00;99.90;;;;;;6298072;22;20019;-83
2023/11/22 08:50:18;;;;;;;0.55;0.55;;;7.10;87.80;;;;;;6298801;22;20461;-80
2023/11/22 08:52:46;;;;;;;0.85;0.50;;;7.10;1.00;;;;;;6269448;22;20015;-79
2023/11/22 08:55:14;;;;;;;1.02;0.60;;;7.10;1.00;;;;;;6245144;22;20030;-83
2023/11/22 08:57:43;;;;;;;0.57;0.50;;;7.20;99.90;;;;;;6246363;22;20050;-83
2023/11/22 09:00:11;;;;;;;0.75;0.57;;;7.20;99.90;;;;;;6270732;22;20069;-82
2023/11/22 09:02:38;;;;;;;0.60;0.60;;;7.20;99.90;;;;;;6270940;22;20428;-81
2023/11/22 09:05:12;;;;;;;0.70;0.60;;;7.30;99.90;;;;;;6268613;22;20027;-81
2023/11/22 09:07:39;;;;;;;1.27;0.65;;;7.50;99.90;;;;;;6292611;22;20023;-82
2023/11/22 09:10:09;;;;;;;0.77;0.55;;;7.60;1.00;;;;;;6268436;22;20023;-81
2023/11/22 09:12:40;;;;;;;0.65;0.52;;;7.70;1.00;;;;;;6290736;22;20027;-82
2023/11/22 09:15:13;;;;;;;0.93;0.73;;;7.80;99.90;;;;;;6263697;22;20019;-82
2023/11/22 09:17:44;;;;;;;1.02;0.68;;;8.00;99.90;;;;;;6265009;22;20801;-82
2023/11/22 09:20:17;;;;;;;1.55;0.82;;;8.20;55.90;;;;;;6265450;22;20535;-82
2023/11/22 09:22:47;;;;;;;0.50;0.47;;;8.40;11.50;;;;;;6263254;22;20476;-83
2023/11/22 09:25:19;;;;;;;0.73;0.52;;;8.60;99.90;;;;;;6265194;22;20023;-82
2023/11/22 09:27:51;;;;;;;0.82;0.63;;;8.70;99.80;;;;;;6264082;22;20674;-82
2023/11/22 09:33:09;;;;;;;0.57;0.50;;;9.00;99.90;;;;;;6268032;22;20023;-82
2023/11/22 09:35:36;;;;;;;0.50;0.38;;;9.10;1.00;;;;;;6239514;22;20093;-81
2023/11/22 09:38:11;;;;;;;0.20;0.20;;;9.10;99.90;;;;;;6237636;22;20077;-82
2023/11/22 09:40:45;;;;;;;0.40;0.40;;;9.10;99.90;;;;;;6240316;22;20019;-83
2023/11/22 09:43:15;;;;;;;0.60;0.40;;;9.10;99.90;;;;;;6264033;22;20076;-82
2023/11/22 09:45:42;;;;;;;0.43;0.40;;;9.10;99.90;;;;;;6240173;22;20728;-82
2023/11/22 09:48:18;;;;;;;0.30;0.30;;;9.10;99.90;;;;;;6215024;22;20471;-83
2023/11/22 09:51:03;;;;;;;0.35;0.30;;;9.10;99.90;;;;;;6266988;22;20030;-82
2023/11/22 09:53:36;;;;;;;0.90;0.40;;;9.10;99.90;;;;;;6263316;22;20019;-82
2023/11/22 09:56:04;;;;;;;;;;;9.10;99.90;;;;;;6219727;22;20019;-82
2023/11/22 09:58:34;;;;;;;0.47;0.47;;;9.20;99.90;;;;;;6270046;22;19915;-83
2023/11/22 10:01:01;;;;;;;0.30;0.30;;;9.20;99.90;;;;;;6243984;22;20606;-79
2023/11/22 10:03:31;;;;;;;0.57;0.40;;;9.30;99.90;;;;;;6239740;22;20076;-78
2023/11/22 10:06:04;;;;;;;0.22;0.22;;;9.30;99.90;;;;;;6268024;22;20407;-80
2023/11/22 10:08:31;;;;;;;0.80;0.45;;;9.40;99.90;;;;;;6245790;22;20043;-77
2023/11/22 10:10:59;;;;;;;1.15;0.32;;;9.40;99.90;;;;;;6270207;22;20026;-77
2023/11/22 10:13:26;;;;;;;0.50;0.32;;;9.50;99.90;;;;;;6267515;22;20021;-76
2023/11/22 10:15:54;;;;;;;0.40;0.38;;;9.60;99.90;;;;;;6266834;22;20070;-77
2023/11/22 10:18:21;;;;;;;0.50;0.40;;;9.60;99.90;;;;;;6242476;22;20019;-77
2023/11/22 10:20:51;;;;;;;0.77;0.52;;;9.60;90.40;;;;;;6215549;22;20046;-77
2023/11/22 10:23:28;;;;;;;0.68;0.40;;;9.60;68.10;;;;;;6291204;22;20023;-76
2023/11/22 10:25:55;;;;;;;0.45;0.30;;;9.70;66.00;;;;;;6293667;22;20038;-77
2023/11/22 10:28:25;;;;;;;0.20;0.20;;;9.70;47.80;;;;;;6292739;22;20673;-77
2023/11/22 10:30:52;;;;;;;0.25;0.20;;;9.70;48.70;;;;;;6296749;22;20105;-77
2023/11/22 10:33:22;;;;;;;0.80;0.60;;;9.70;43.80;;;;;;6268552;22;20024;-76
2023/11/22 10:35:53;;;;;;;0.20;0.20;;;9.70;37.90;;;;;;6243626;22;20483;-76
2023/11/22 10:38:20;;;;;;;4.28;0.82;;;9.80;48.40;;;;;;6296749;22;20050;-77
2023/11/22 10:40:47;;;;;;;0.80;0.57;;;9.80;34.70;;;;;;6299766;22;20459;-77
2023/11/22 10:43:15;;;;;;;0.50;0.32;;;9.80;29.60;;;;;;6272659;22;20019;-76
2023/11/22 10:45:48;;;;;;;0.63;0.40;;;9.80;25.40;;;;;;6247077;22;20031;-77
2023/11/22 10:48:16;;;;;;;0.40;0.35;;;9.90;25.30;;;;;;6249231;22;20322;-77
2023/11/22 10:50:48;;;;;;;0.40;0.40;;;9.90;19.30;;;;;;6246564;22;20310;-77
2023/11/22 10:53:22;;;;;;;0.70;0.50;;;9.90;18.00;;;;;;6244924;22;20026;-77
2023/11/22 10:55:49;;;;;;;0.50;0.40;;;9.90;19.10;;;;;;6243602;22;20023;-77
2023/11/22 10:58:17;;;;;;;0.50;0.32;;;9.90;15.50;;;;;;6242313;22;20094;-77
2023/11/22 11:00:45;;;;;;;0.93;0.50;;;9.90;12.50;;;;;;6268245;22;20026;-80
2023/11/22 11:03:25;;;;;;;0.50;0.40;;;9.90;7.90;;;;;;6269405;22;20019;-79
2023/11/22 11:06:19;;;;;;;0.52;0.40;;;9.90;4.00;;;;;;6247774;22;20084;-79
2023/11/22 11:08:46;;;;;;;0.50;0.50;;;9.80;3.50;;;;;;6246461;22;20019;-80
2023/11/22 11:11:15;;;;;;;0.98;0.40;;;9.90;1.40;;;;;;6247146;22;20074;-79
2023/11/22 11:13:42;;;;;;;0.68;0.52;;;9.90;1.00;;;;;;6247353;22;20468;-80
2023/11/22 11:16:09;;;;;;;1.45;0.80;;;9.90;1.00;;;;;;6245619;22;20019;-79
2023/11/22 11:18:36;;;;;;;0.70;0.55;;;10.00;1.00;;;;;;6243003;22;20055;-81
2023/11/22 11:21:07;;;;;;;1.05;0.50;;;10.00;1.00;;;;;;6243349;22;20090;-82
2023/11/22 11:23:34;;;;;;;0.60;0.52;;;10.10;1.00;;;;;;6219520;22;20029;-80
2023/11/22 11:26:15;;;;;;;0.55;0.38;;;10.20;1.00;;;;;;6217146;22;20583;-80
2023/11/22 11:28:47;;;;;;;0.57;0.40;;;10.40;1.00;;;;;;6241894;22;20081;-79
2023/11/22 11:31:15;;;;;;;0.45;0.40;;;10.50;1.00;;;;;;6223512;22;20031;-79
2023/11/22 11:33:48;;;;;;;0.60;0.40;;;10.60;1.00;;;;;;6247336;22;20901;-79
2023/11/22 11:36:29;;;;;;;0.65;0.40;;;10.70;1.00;;;;;;6271133;22;20649;-79
2023/11/22 11:38:56;;;;;;;1.02;0.50;;;10.80;1.00;;;;;;6246012;22;20029;-79
2023/11/22 11:41:26;;;;;;;0.52;0.40;;;10.80;1.00;;;;;;6246446;22;20468;-80
2023/11/22 11:43:53;;;;;;;2.25;0.50;;;10.90;1.00;;;;;;6221636;22;20581;-79
2023/11/22 11:46:22;;;;;;;0.70;0.40;;;10.80;1.00;;;;;;6269235;22;20399;-79
2023/11/22 11:48:50;;;;;;;0.88;0.60;;;10.90;1.00;;;;;;6221262;22;20113;-80
2023/11/22 11:51:18;;;;;;;1.05;0.50;;;10.90;1.00;;;;;;6221151;22;20027;-79
2023/11/22 11:53:45;;;;;;;0.47;0.40;;;10.90;1.00;;;;;;6244134;22;20019;-79
2023/11/22 11:56:13;;;;;;;0.65;0.50;;;10.90;1.00;;;;;;6246080;22;20098;-82
2023/11/22 11:58:43;;;;;;;0.77;0.50;;;10.90;1.00;;;;;;6243153;22;20019;-82
2023/11/22 12:01:14;;;;;;;1.08;0.57;;;10.90;1.00;;;;;;6218082;22;20019;-80
2023/11/22 12:03:40;;;;;;;0.82;0.43;;;10.80;1.00;;;;;;6242095;22;20353;-80
2023/11/22 12:06:08;;;;;;;0.70;0.40;;;10.80;1.00;;;;;;6267539;22;20027;-79
2023/11/22 12:08:36;;;;;;;0.63;0.43;;;10.80;1.00;;;;;;6266355;22;20023;-80
2023/11/22 12:11:10;;;;;;;0.68;0.50;;;10.80;1.00;;;;;;6217607;22;20315;-80
2023/11/22 12:13:46;;;;;;;0.38;0.30;;;10.70;1.00;;;;;;6245001;22;20042;-80
2023/11/22 12:16:19;;;;;;;0.28;0.28;;;10.70;1.00;;;;;;6220549;22;20341;-80
2023/11/22 12:18:49;;;;;;;;;;;10.80;1.00;;;;;;6218159;22;20023;-79
2023/11/22 12:21:17;;;;;;;0.70;0.40;;;10.80;1.00;;;;;;6268018;22;19918;-79
2023/11/22 12:23:46;;;;;;;0.40;0.38;;;10.80;1.00;;;;;;6215796;22;20039;-80
2023/11/22 12:26:15;;;;;;;0.60;0.50;;;10.80;1.00;;;;;;6218495;22;20029;-80
2023/11/22 12:28:46;;;;;;;1.10;0.70;;;10.90;1.00;;;;;;6242540;22;20019;-79
2023/11/22 12:31:29;;;;;;;1.50;0.60;;;10.80;1.00;;;;;;6226572;22;20081;-79
2023/11/22 12:33:58;;;;;;;1.17;0.70;;;10.80;1.00;;;;;;6243312;22;20042;-80
2023/11/22 12:36:25;;;;;;;1.13;0.70;;;10.80;1.00;;;;;;6242548;22;20511;-80
2023/11/22 12:38:55;;;;;;;1.35;0.80;;;10.80;1.00;;;;;;6215533;22;20457;-80
2023/11/22 12:41:22;;;;;;;0.90;0.63;;;10.90;1.00;;;;;;6216964;22;20103;-80
2023/11/22 12:44:10;;;;;;;1.17;0.50;;;10.90;1.00;;;;;;6241149;22;20019;-80
2023/11/22 12:46:57;;;;;;;0.90;0.60;;;10.90;1.00;;;;;;6264014;22;20467;-80
2023/11/22 12:49:28;;;;;;;2.13;0.65;;;10.90;1.00;;;;;;6267325;22;20037;-80
2023/11/22 12:51:58;;;;;;;2.60;0.80;;;11.00;1.00;;;;;;6266173;22;20100;-80
2023/11/22 12:54:26;;;;;;;0.70;0.52;;;11.10;1.00;;;;;;6240299;22;20054;-80
2023/11/22 12:56:59;;;;;;;1.52;0.70;;;11.20;1.00;;;;;;6241174;22;20579;-80
2023/11/22 12:59:33;;;;;;;1.40;0.70;;;11.20;1.00;;;;;;6243344;22;20050;-81
2023/11/22 13:02:00;;;;;;;1.42;0.82;;;11.30;1.00;;;;;;6217357;22;20034;-81
2023/11/22 13:04:29;;;;;;;1.80;0.90;;;11.30;1.00;;;;;;6214995;22;20291;-81
2023/11/22 13:06:59;;;;;;;2.13;1.00;;;11.20;1.00;;;;;;6264847;22;20518;-80
2023/11/22 13:09:26;;;;;;;2.70;1.10;;;11.20;1.00;;;;;;6214445;22;20077;-80
2023/11/22 13:11:53;;;;;;;1.95;1.20;;;11.10;1.00;;;;;;6240292;22;20388;-80